Time;durP1;ratioP1;P1;durP2;ratioP2;P2;SDS_P1;SDS_P2;PMS_P1;PMS_P2;Temp;Humidity;BMP_temperature;BMP_pressure;BME280_temperature;BME280_humidity;BME280_pressure;Samples;Min_cycle;Max_cycle;Signal;HPM_P1;HPM_P2
2023/05/21 00:02:53;;;;;;;13.30;7.00;;;;;;;12.52;68.90;102410.44;10640644;27;20524;-72
2023/05/21 00:07:56;;;;;;;12.68;6.53;;;;;;;12.42;68.85;102410.28;10656044;27;20035;-72
2023/05/21 00:12:58;;;;;;;15.13;7.05;;;;;;;12.37;69.04;102403.59;10652373;27;20039;-72
2023/05/21 00:18:00;;;;;;;9.65;5.38;;;;;;;12.36;66.75;102410.19;10658480;27;20035;-72
2023/05/21 00:23:04;;;;;;;9.10;6.00;;;;;;;12.41;66.81;102416.88;10658463;27;20042;-72
2023/05/21 00:28:06;;;;;;;11.10;6.07;;;;;;;12.47;65.28;102418.59;10613875;27;20394;-72
2023/05/21 00:33:12;;;;;;;13.68;5.60;;;;;;;12.55;65.30;102407.19;10620415;27;20051;-72
2023/05/21 00:38:16;;;;;;;10.13;6.25;;;;;;;12.55;65.48;102421.78;10613162;27;20035;-72
2023/05/21 00:43:19;;;;;;;10.20;5.70;;;;;;;12.38;66.99;102419.03;10612149;27;20482;-72
2023/05/21 00:48:24;;;;;;;9.93;5.60;;;;;;;12.27;67.78;102410.84;10645726;27;20077;-72
2023/05/21 00:53:27;;;;;;;11.75;6.32;;;;;;;12.11;69.24;102406.16;10619460;27;20058;-72
2023/05/21 00:58:32;;;;;;;12.32;6.40;;;;;;;11.98;69.62;102413.66;10605692;27;20036;-72
2023/05/21 01:03:37;;;;;;;11.38;6.05;;;;;;;11.91;69.76;102420.38;10611663;27;20050;-72
2023/05/21 01:08:40;;;;;;;10.55;5.78;;;;;;;11.92;70.26;102405.53;10600305;27;20040;-72
2023/05/21 01:13:48;;;;;;;10.43;6.13;;;;;;;12.00;69.79;102414.25;10634988;27;20043;-72
2023/05/21 01:18:52;;;;;;;12.25;6.07;;;;;;;12.08;69.02;102413.00;10643543;27;20042;-72
2023/05/21 01:23:55;;;;;;;8.57;5.53;;;;;;;12.11;68.99;102400.66;10625021;27;20054;-72
2023/05/21 01:28:57;;;;;;;8.60;5.05;;;;;;;12.12;69.17;102405.06;10636761;27;20085;-72
2023/05/21 01:34:01;;;;;;;15.70;5.88;;;;;;;12.15;68.32;102404.56;10614828;27;20797;-72
2023/05/21 01:39:22;;;;;;;11.82;6.13;;;;;;;12.14;69.25;102400.16;10595867;27;20035;-72
2023/05/21 01:44:25;;;;;;;10.30;5.43;;;;;;;11.99;69.43;102409.84;10617274;27;20035;-72
2023/05/21 01:49:28;;;;;;;12.80;5.80;;;;;;;12.07;70.57;102406.66;10612550;27;20036;-72
2023/05/21 01:54:31;;;;;;;11.77;5.50;;;;;;;12.24;70.73;102403.09;10628559;27;20035;-72
2023/05/21 01:59:33;;;;;;;11.10;5.88;;;;;;;12.41;70.89;102408.59;10605707;27;20051;-72
2023/05/21 02:04:40;;;;;;;14.20;5.95;;;;;;;12.47;70.58;102402.09;10650153;27;20065;-72
2023/05/21 02:09:42;;;;;;;11.70;5.88;;;;;;;12.69;70.30;102405.75;10634435;27;20043;-71
2023/05/21 02:14:49;;;;;;;10.20;6.03;;;;;;;12.91;69.63;102414.06;10653481;27;20042;-72
2023/05/21 02:19:51;;;;;;;12.77;6.53;;;;;;;13.18;69.12;102409.50;10635467;27;20043;-72
2023/05/21 02:24:53;;;;;;;8.63;5.65;;;;;;;13.43;67.84;102403.50;10617781;27;20513;-72
2023/05/21 02:29:55;;;;;;;9.70;5.53;;;;;;;13.61;67.03;102404.25;10592070;27;20412;-72
2023/05/21 02:34:58;;;;;;;11.30;6.35;;;;;;;13.72;66.96;102404.13;10608185;27;20039;-71
2023/05/21 02:40:03;;;;;;;8.95;5.65;;;;;;;13.84;66.20;102399.25;10617449;27;20520;-72
2023/05/21 02:45:10;;;;;;;9.77;5.80;;;;;;;14.16;65.48;102388.25;10598503;27;20035;-72
2023/05/21 02:50:14;;;;;;;6.15;5.20;;;;;;;14.34;65.15;102394.47;10619412;27;20034;-72
2023/05/21 02:55:21;;;;;;;11.93;6.30;;;;;;;14.50;64.05;102387.19;10607350;27;20027;-72
2023/05/21 03:00:24;;;;;;;10.38;6.38;;;;;;;14.72;63.14;102390.66;10627416;27;20618;-72
2023/05/21 03:05:26;;;;;;;9.20;6.07;;;;;;;15.12;62.30;102392.84;10616196;27;20031;-72
2023/05/21 03:10:28;;;;;;;10.60;6.50;;;;;;;15.55;60.71;102388.03;10640159;27;20515;-72
2023/05/21 03:15:32;;;;;;;9.32;6.28;;;;;;;15.81;58.90;102400.88;10623945;27;20425;-72
2023/05/21 03:20:34;;;;;;;11.25;6.90;;;;;;;15.93;58.54;102404.19;10635878;27;20405;-73
2023/05/21 03:25:37;;;;;;;12.30;6.15;;;;;;;16.51;57.38;102402.03;10631423;27;20039;-72
2023/05/21 03:30:40;;;;;;;11.60;6.22;;;;;;;16.67;56.76;102404.81;10631336;27;20047;-72
2023/05/21 03:36:06;;;;;;;8.25;5.75;;;;;;;16.66;56.80;102403.09;10577189;28;20047;-73
2023/05/21 03:41:12;;;;;;;9.60;5.65;;;;;;;16.99;55.92;102402.50;10563327;28;20035;-72
2023/05/21 03:46:16;;;;;;;14.18;6.00;;;;;;;17.36;55.02;102402.13;10576369;28;20049;-73
2023/05/21 03:51:37;;;;;;;8.35;5.32;;;;;;;17.64;54.34;102402.53;10574414;27;20036;-72
2023/05/21 03:56:40;;;;;;;14.95;6.00;;;;;;;17.82;54.53;102409.41;10591403;27;20078;-73
2023/05/21 04:01:42;;;;;;;9.63;5.95;;;;;;;18.54;52.14;102404.97;10596984;27;20130;-72
2023/05/21 04:06:47;;;;;;;8.35;5.35;;;;;;;18.77;51.26;102400.63;10586864;27;20044;-72
2023/05/21 04:11:49;;;;;;;8.07;5.35;;;;;;;18.75;51.21;102398.16;10603150;28;20100;-72
2023/05/21 04:16:51;;;;;;;10.30;5.78;;;;;;;19.20;49.96;102404.31;10571963;28;20031;-72
2023/05/21 04:21:56;;;;;;;7.93;4.72;;;;;;;19.28;46.92;102403.66;10554259;28;20051;-72
2023/05/21 04:27:00;;;;;;;13.45;5.20;;;;;;;19.38;47.35;102397.13;10583836;28;20052;-72
2023/05/21 04:32:05;;;;;;;9.38;5.03;;;;;;;19.71;46.21;102396.16;10594210;27;20031;-72
2023/05/21 04:37:08;;;;;;;8.05;4.80;;;;;;;20.09;44.02;102396.97;10646737;27;20039;-72
2023/05/21 04:42:10;;;;;;;6.68;4.28;;;;;;;20.62;41.87;102391.09;10652763;27;20042;-72
2023/05/21 04:47:13;;;;;;;8.27;4.38;;;;;;;20.91;41.87;102395.59;10627648;27;20515;-72
2023/05/21 04:52:16;;;;;;;8.07;4.93;;;;;;;20.91;41.17;102395.59;10611607;27;20039;-72
2023/05/21 04:57:19;;;;;;;7.28;4.63;;;;;;;21.00;40.84;102399.28;10633553;27;20046;-72
2023/05/21 05:02:21;;;;;;;7.05;4.70;;;;;;;21.49;39.95;102394.97;10624261;27;20051;-72
2023/05/21 05:07:23;;;;;;;5.03;3.70;;;;;;;22.03;38.48;102393.19;10653604;27;20501;-72
2023/05/21 05:12:25;;;;;;;6.75;3.60;;;;;;;22.06;37.75;102392.59;10629361;27;20046;-72
2023/05/21 05:17:28;;;;;;;4.85;3.40;;;;;;;22.59;36.43;102375.84;10617790;27;20520;-72
2023/05/21 05:22:30;;;;;;;6.65;3.45;;;;;;;22.05;36.64;102376.97;10650185;27;20050;-73
2023/05/21 05:27:33;;;;;;;6.05;2.58;;;;;;;21.85;36.89;102384.66;10593110;27;20039;-76
2023/05/21 05:32:40;;;;;;;4.97;2.65;;;;;;;22.25;36.12;102385.69;10603824;27;20058;-72
2023/05/21 05:37:43;;;;;;;6.68;2.95;;;;;;;22.65;34.47;102379.34;10642790;27;20038;-72
2023/05/21 05:42:48;;;;;;;5.60;2.80;;;;;;;22.56;34.97;102374.53;10647707;27;20394;-71
2023/05/21 05:47:51;;;;;;;4.03;2.63;;;;;;;22.54;35.06;102376.78;10634196;27;20031;-71
2023/05/21 05:52:54;;;;;;;6.00;3.05;;;;;;;22.59;34.04;102375.84;10647044;27;20031;-72
2023/05/21 05:57:56;;;;;;;3.85;2.65;;;;;;;22.68;34.69;102375.88;10631110;27;20040;-72
2023/05/21 06:02:58;;;;;;;4.38;2.72;;;;;;;23.48;32.78;102374.72;10631994;27;20039;-72
2023/05/21 06:08:02;;;;;;;4.43;2.33;;;;;;;23.60;31.32;102366.53;10633344;27;20031;-72
2023/05/21 06:13:07;;;;;;;2.40;2.20;;;;;;;23.74;31.54;102372.81;10610021;27;20516;-72
2023/05/21 06:18:10;;;;;;;5.03;2.30;;;;;;;24.13;30.71;102354.19;10632052;27;20035;-72
2023/05/21 06:23:12;;;;;;;3.25;1.85;;;;;;;24.49;29.29;102367.03;10631549;27;20046;-72
2023/05/21 06:28:16;;;;;;;3.00;2.00;;;;;;;24.46;28.70;102356.44;10632187;27;20041;-72
2023/05/21 06:33:26;;;;;;;2.58;1.42;;;;;;;24.43;29.31;102351.50;10628797;27;20047;-72
2023/05/21 06:38:28;;;;;;;4.40;2.10;;;;;;;24.64;28.29;102355.22;10598058;27;20045;-72
2023/05/21 06:43:31;;;;;;;2.42;1.75;;;;;;;23.86;28.79;102352.53;10631301;27;20050;-71
2023/05/21 06:48:45;;;;;;;3.67;1.80;;;;;;;24.46;29.18;102350.81;10652156;27;20046;-71
2023/05/21 06:53:48;;;;;;;1.48;1.38;;;;;;;24.45;29.20;102351.97;10633894;27;20070;-73
2023/05/21 06:58:51;;;;;;;3.47;1.67;;;;;;;24.11;29.68;102333.19;10634612;27;20038;-72
2023/05/21 07:03:53;;;;;;;1.88;1.45;;;;;;;24.08;28.79;102325.47;10633327;27;20440;-72
2023/05/21 07:08:56;;;;;;;1.80;1.40;;;;;;;24.59;28.33;102332.97;10664191;27;20035;-73
2023/05/21 07:14:02;;;;;;;1.63;1.35;;;;;;;24.47;28.32;102325.25;10643549;28;20075;-72
2023/05/21 07:19:07;;;;;;;1.77;1.27;;;;;;;25.28;27.93;102329.84;10616344;28;20047;-73
2023/05/21 07:24:10;;;;;;;3.38;1.42;;;;;;;25.66;27.32;102326.09;10632377;27;20042;-73
2023/05/21 07:29:15;;;;;;;1.95;1.40;;;;;;;25.29;27.88;102313.81;10615831;28;20039;-73
2023/05/21 07:34:18;;;;;;;1.80;1.35;;;;;;;24.61;28.49;102311.00;10586287;28;20047;-73
2023/05/21 07:39:21;;;;;;;2.47;1.30;;;;;;;25.08;27.84;102310.97;10592019;28;20063;-73
2023/05/21 07:44:24;;;;;;;3.38;1.40;;;;;;;25.82;27.07;102301.81;10571503;28;20027;-72
2023/05/21 07:49:26;;;;;;;2.53;1.48;;;;;;;24.96;27.06;102301.25;10587680;28;20040;-73
2023/05/21 07:54:29;;;;;;;2.67;1.40;;;;;;;25.24;27.73;102301.59;10533394;28;20047;-77
2023/05/21 07:59:33;;;;;;;2.60;1.40;;;;;;;25.44;26.77;102299.97;10545867;28;20039;-77
2023/05/21 08:04:37;;;;;;;1.60;1.40;;;;;;;25.21;26.95;102293.03;10568201;28;20047;-77
2023/05/21 08:09:40;;;;;;;1.48;1.23;;;;;;;26.22;26.52;102304.09;10580545;28;20033;-76
2023/05/21 08:14:45;;;;;;;2.00;1.30;;;;;;;26.85;25.47;102304.66;10580679;28;20054;-75
2023/05/21 08:19:49;;;;;;;2.53;1.60;;;;;;;27.47;24.84;102301.47;10563170;27;20051;-76
2023/05/21 08:24:52;;;;;;;2.05;1.40;;;;;;;26.73;25.77;102295.06;10583680;28;20066;-74
2023/05/21 08:29:54;;;;;;;1.73;1.25;;;;;;;26.99;25.87;102289.06;10597141;27;20046;-76
2023/05/21 08:34:57;;;;;;;1.92;1.40;;;;;;;26.66;26.43;102297.63;10602012;27;20047;-76
2023/05/21 08:40:40;;;;;;;3.08;1.90;;;;;;;26.34;26.20;102292.84;10486692;28;20543;-76
2023/05/21 08:45:53;;;;;;;3.83;2.03;;;;;;;26.22;27.13;102284.41;10589677;27;20058;-76
2023/05/21 08:50:57;;;;;;;2.13;1.63;;;;;;;26.17;26.32;102278.97;10539979;28;20032;-74
2023/05/21 08:56:05;;;;;;;2.22;1.40;;;;;;;25.88;26.96;102277.97;10566205;28;20044;-73
2023/05/21 09:01:18;;;;;;;1.92;1.38;;;;;;;25.00;27.41;102278.16;10579596;27;20067;-73
2023/05/21 09:06:24;;;;;;;4.07;1.08;;;;;;;24.32;28.34;102273.31;10555636;27;20039;-75
2023/05/21 09:11:28;;;;;;;2.15;1.15;;;;;;;23.55;29.10;102262.97;10561168;28;20038;-75
2023/05/21 09:16:33;;;;;;;2.25;1.23;;;;;;;22.94;29.62;102256.50;10564880;27;20047;-73
2023/05/21 09:21:38;;;;;;;1.92;1.60;;;;;;;23.14;29.98;102253.06;10595421;28;20046;-75
2023/05/21 09:26:54;;;;;;;4.97;1.52;;;;;;;23.34;29.52;102247.97;10557102;28;20036;-74
2023/05/21 09:31:56;;;;;;;3.92;1.88;;;;;;;22.36;31.14;102237.97;10606182;27;20501;-74
2023/05/21 09:37:00;;;;;;;3.00;1.88;;;;;;;22.24;31.50;102229.41;10645982;27;20042;-74
2023/05/21 09:42:03;;;;;;;2.97;1.42;;;;;;;21.89;31.51;102231.97;10635523;27;20041;-76
2023/05/21 09:47:08;;;;;;;2.28;1.50;;;;;;;21.59;32.42;102232.72;10623093;27;20043;-73
2023/05/21 09:52:11;;;;;;;2.72;1.58;;;;;;;20.98;33.39;102229.34;10659305;27;20043;-74
2023/05/21 09:57:14;;;;;;;2.33;1.30;;;;;;;20.67;32.99;102243.16;10635186;27;20031;-74
2023/05/21 10:02:22;;;;;;;2.15;1.25;;;;;;;20.43;33.12;102234.97;10616960;27;20054;-74
2023/05/21 10:07:25;;;;;;;1.55;1.25;;;;;;;20.49;34.03;102223.75;10637454;27;20053;-74
2023/05/21 10:12:29;;;;;;;1.70;1.17;;;;;;;20.53;33.67;102219.19;10648130;27;20045;-75
2023/05/21 10:17:31;;;;;;;1.83;0.90;;;;;;;20.46;33.83;102220.41;10647182;27;20388;-75
2023/05/21 10:22:34;;;;;;;1.23;1.10;;;;;;;20.19;33.09;102209.22;10616258;27;20043;-76
2023/05/21 10:27:38;;;;;;;2.65;1.40;;;;;;;20.07;33.62;102195.78;10651777;27;20031;-74
2023/05/21 10:32:40;;;;;;;1.30;1.00;;;;;;;20.03;33.60;102194.75;10614491;27;20043;-74
2023/05/21 10:37:44;;;;;;;1.75;0.98;;;;;;;20.18;33.75;102194.47;10625367;27;20481;-76
2023/05/21 10:43:14;;;;;;;1.42;1.08;;;;;;;20.05;33.80;102189.69;10609240;28;20521;-74
2023/05/21 10:48:35;;;;;;;5.22;1.40;;;;;;;19.94;34.10;102185.44;10627778;27;20047;-74
2023/05/21 10:53:43;;;;;;;1.92;1.27;;;;;;;19.79;33.87;102191.31;10622447;27;20031;-75
2023/05/21 10:58:52;;;;;;;1.73;1.00;;;;;;;19.78;34.03;102182.09;10648786;27;20529;-74
2023/05/21 11:03:54;;;;;;;1.38;1.00;;;;;;;19.72;34.21;102174.97;10614817;28;20046;-74
2023/05/21 11:09:11;;;;;;;1.38;1.00;;;;;;;19.78;34.85;102170.13;10630857;28;20039;-76
2023/05/21 11:14:26;;;;;;;2.20;1.02;;;;;;;19.84;34.27;102180.91;10599605;28;20229;-76
2023/05/21 11:19:39;;;;;;;1.50;1.08;;;;;;;19.65;34.73;102170.94;10648442;28;20429;-76
2023/05/21 11:24:42;;;;;;;1.80;1.02;;;;;;;19.55;34.83;102164.41;10623566;28;20042;-76
2023/05/21 11:29:46;;;;;;;0.98;0.90;;;;;;;19.58;34.96;102158.22;10622893;28;20039;-77
2023/05/21 11:34:49;;;;;;;0.70;0.70;;;;;;;19.45;35.13;102167.34;10609782;28;20043;-77
2023/05/21 11:39:51;;;;;;;2.88;1.27;;;;;;;19.40;35.22;102166.59;10607321;28;20155;-77
2023/05/21 11:44:56;;;;;;;1.05;0.90;;;;;;;19.35;35.06;102161.94;10571697;28;20032;-76
2023/05/21 11:50:06;;;;;;;2.25;1.05;;;;;;;19.37;35.31;102148.53;10607646;28;20050;-77
2023/05/21 11:55:10;;;;;;;2.03;1.40;;;;;;;19.24;35.89;102157.66;10628650;27;20047;-76
2023/05/21 12:00:15;;;;;;;1.10;0.95;;;;;;;19.27;35.29;102171.00;10637873;27;20527;-76
2023/05/21 12:05:19;;;;;;;1.63;1.10;;;;;;;19.07;35.65;102137.91;10608784;27;20046;-77
2023/05/21 12:10:22;;;;;;;1.20;1.00;;;;;;;18.96;35.95;102135.28;10624101;27;20456;-76
2023/05/21 12:15:26;;;;;;;1.42;0.90;;;;;;;19.00;35.34;102141.06;10587133;27;20043;-77
2023/05/21 12:20:28;;;;;;;1.23;0.90;;;;;;;18.99;35.87;102125.50;10640270;27;20034;-76
2023/05/21 12:25:33;;;;;;;1.27;0.70;;;;;;;19.26;35.67;102127.56;10637198;27;20031;-76
2023/05/21 12:30:35;;;;;;;1.35;1.15;;;;;;;19.35;35.12;102139.69;10606463;27;20044;-77
2023/05/21 12:35:37;;;;;;;1.23;0.98;;;;;;;19.17;35.34;102152.50;10594969;28;20051;-76
2023/05/21 12:40:40;;;;;;;2.15;1.20;;;;;;;19.10;35.39;102134.53;10613685;28;20535;-74
2023/05/21 12:45:42;;;;;;;1.90;1.00;;;;;;;19.04;35.31;102130.16;10610635;28;20032;-74
2023/05/21 12:50:44;;;;;;;1.88;1.23;;;;;;;19.13;35.28;102157.00;10595490;28;20516;-73
2023/05/21 12:55:47;;;;;;;1.63;1.17;;;;;;;19.04;35.62;102131.00;10594251;28;20168;-75
2023/05/21 13:00:49;;;;;;;1.90;1.08;;;;;;;19.04;35.48;102142.13;10591579;28;20413;-74
2023/05/21 13:05:59;;;;;;;2.20;1.10;;;;;;;18.86;35.52;102115.97;10593517;28;20620;-74
2023/05/21 13:11:02;;;;;;;1.77;1.13;;;;;;;18.90;35.47;102117.00;10584201;28;20059;-74
2023/05/21 13:16:05;;;;;;;1.30;0.90;;;;;;;18.93;35.82;102132.28;10616776;27;20046;-73
2023/05/21 13:21:08;;;;;;;1.27;0.90;;;;;;;18.89;35.77;102115.34;10595753;28;20035;-74
2023/05/21 13:26:10;;;;;;;2.97;1.48;;;;;;;19.05;35.39;102120.69;10595440;28;20040;-75
2023/05/21 13:31:15;;;;;;;1.50;1.20;;;;;;;18.88;35.58;102124.81;10611382;28;20047;-73
2023/05/21 13:36:17;;;;;;;1.42;1.02;;;;;;;18.84;35.87;102111.84;10614287;27;20520;-73
2023/05/21 13:41:20;;;;;;;1.55;1.30;;;;;;;18.80;35.77;102114.41;10610513;28;20035;-74
2023/05/21 13:46:22;;;;;;;2.50;0.90;;;;;;;18.72;36.04;102101.16;10610667;28;20161;-74
2023/05/21 13:51:25;;;;;;;1.48;1.17;;;;;;;18.73;35.75;102101.97;10596077;27;20039;-75
2023/05/21 13:56:27;;;;;;;2.38;1.17;;;;;;;18.83;36.10;102096.28;10609417;28;20039;-76
2023/05/21 14:01:30;;;;;;;2.30;1.25;;;;;;;18.89;35.99;102097.84;10587365;28;20043;-75
2023/05/21 14:06:32;;;;;;;1.33;0.90;;;;;;;18.92;35.79;102098.09;10601257;28;20047;-76
2023/05/21 14:11:34;;;;;;;1.73;1.00;;;;;;;18.90;35.39;102089.19;10592777;27;20043;-76
2023/05/21 14:16:36;;;;;;;1.25;1.00;;;;;;;18.79;35.58;102090.50;10590991;28;20052;-75
2023/05/21 14:21:40;;;;;;;1.05;0.95;;;;;;;18.74;35.70;102081.38;10608765;28;20043;-75
2023/05/21 14:26:42;;;;;;;1.98;1.10;;;;;;;18.81;35.71;102079.06;10609035;28;20047;-75
2023/05/21 14:31:46;;;;;;;2.65;0.63;;;;;;;18.78;35.86;102071.31;10624319;27;20035;-75
2023/05/21 14:36:49;;;;;;;1.13;0.80;;;;;;;18.67;35.97;102065.09;10651133;27;20046;-75
2023/05/21 14:41:51;;;;;;;5.22;1.13;;;;;;;18.64;36.18;102068.47;10646819;27;20039;-75
2023/05/21 14:46:54;;;;;;;1.90;0.63;;;;;;;18.62;35.98;102079.03;10651003;27;20050;-76
2023/05/21 14:51:56;;;;;;;0.93;0.75;;;;;;;18.70;36.19;102069.22;10650342;27;20047;-76
2023/05/21 14:56:59;;;;;;;1.73;1.08;;;;;;;18.75;35.65;102066.38;10644341;27;20390;-77
2023/05/21 15:02:02;;;;;;;1.30;1.10;;;;;;;18.63;36.07;102061.25;10633391;27;20599;-77
2023/05/21 15:07:04;;;;;;;1.30;1.20;;;;;;;18.60;36.18;102059.06;10636648;27;20489;-79
2023/05/21 15:12:06;;;;;;;2.30;1.10;;;;;;;18.57;36.13;102051.28;10662451;27;20381;-77
2023/05/21 15:17:09;;;;;;;2.83;1.30;;;;;;;18.52;36.00;102051.38;10652974;28;20032;-77
2023/05/21 15:22:12;;;;;;;3.05;1.73;;;;;;;18.57;36.24;102041.03;10633657;28;20393;-77
2023/05/21 15:27:14;;;;;;;1.45;0.90;;;;;;;18.62;35.94;102040.13;10635541;27;20058;-77
2023/05/21 15:32:19;;;;;;;2.75;0.98;;;;;;;18.64;35.86;102037.88;10655507;27;20050;-75
2023/05/21 15:37:21;;;;;;;3.67;0.90;;;;;;;18.65;34.95;102031.19;10643410;27;20043;-78
2023/05/21 15:42:24;;;;;;;1.02;0.82;;;;;;;18.71;35.30;102029.97;10634971;27;20043;-77
2023/05/21 15:47:26;;;;;;;2.35;1.25;;;;;;;18.70;35.58;102022.75;10644687;27;20035;-76
2023/05/21 15:52:28;;;;;;;1.05;0.90;;;;;;;18.61;35.63;102016.22;10625623;27;20039;-76
2023/05/21 15:57:31;;;;;;;1.80;1.30;;;;;;;18.57;35.15;102016.00;10656746;27;20027;-76
2023/05/21 16:02:34;;;;;;;1.33;1.02;;;;;;;18.56;35.31;102014.31;10634007;27;20066;-75
2023/05/21 16:07:36;;;;;;;4.68;1.45;;;;;;;18.47;35.02;102013.38;10656449;27;20515;-75
2023/05/21 16:12:39;;;;;;;2.00;1.27;;;;;;;18.42;35.34;102016.22;10655617;27;20063;-75
2023/05/21 16:17:42;;;;;;;1.25;1.08;;;;;;;18.36;35.58;102003.53;10639846;27;20050;-79
2023/05/21 16:22:44;;;;;;;1.88;1.10;;;;;;;18.37;35.91;102006.00;10613155;27;20032;-80
2023/05/21 16:27:47;;;;;;;0.63;0.40;;;;;;;18.43;35.97;102000.38;10645275;27;20511;-78
2023/05/21 16:32:49;;;;;;;2.67;1.20;;;;;;;18.38;36.09;102004.03;10610585;27;20047;-78
2023/05/21 16:37:51;;;;;;;1.40;1.05;;;;;;;18.33;36.10;102007.72;10579047;28;20042;-78
2023/05/21 16:42:57;;;;;;;4.22;1.00;;;;;;;18.19;36.47;102004.03;10583390;28;20398;-79
2023/05/21 16:47:59;;;;;;;0.77;0.60;;;;;;;18.18;36.61;102002.38;10616192;27;20031;-80
2023/05/21 16:53:01;;;;;;;2.00;1.20;;;;;;;18.08;36.37;101997.00;10596311;27;20055;-80
2023/05/21 16:58:04;;;;;;;1.30;1.10;;;;;;;17.99;36.55;102012.66;10609027;28;20035;-81
2023/05/21 17:03:07;;;;;;;1.88;1.15;;;;;;;17.85;36.96;101997.84;10582338;28;20057;-75
2023/05/21 17:08:09;;;;;;;1.15;0.70;;;;;;;17.84;37.16;102004.50;10611671;27;20036;-76
2023/05/21 17:13:11;;;;;;;1.35;1.10;;;;;;;17.75;37.44;102019.06;10609270;28;20568;-75
2023/05/21 17:18:13;;;;;;;2.35;1.20;;;;;;;17.59;37.20;102013.94;10585580;28;20059;-76
2023/05/21 17:23:21;;;;;;;3.97;0.90;;;;;;;17.53;37.75;101992.91;10599728;28;20455;-74
2023/05/21 17:28:23;;;;;;;;;;;;;;;17.60;37.66;101994.22;10606208;27;20039;-74
2023/05/21 17:33:26;;;;;;;1.40;0.85;;;;;;;17.55;37.73;101991.53;10632238;27;19946;-75
2023/05/21 17:38:29;;;;;;;2.13;1.05;;;;;;;17.45;38.39;101995.22;10630589;27;20043;-77
2023/05/21 17:43:31;;;;;;;1.60;1.20;;;;;;;17.48;38.24;101993.81;10633567;27;20050;-75
2023/05/21 17:48:33;;;;;;;3.13;1.27;;;;;;;17.48;38.36;101993.81;10642889;27;20123;-77
2023/05/21 17:53:35;;;;;;;3.15;1.40;;;;;;;17.46;38.23;101996.88;10639656;27;20050;-76
2023/05/21 17:58:37;;;;;;;1.40;0.80;;;;;;;17.42;38.87;101989.44;10595310;27;20408;-78
2023/05/21 18:03:40;;;;;;;2.10;1.05;;;;;;;17.35;39.11;101983.41;10639521;27;20031;-76
2023/05/21 18:08:42;;;;;;;2.28;1.40;;;;;;;17.14;38.74;101983.63;10614274;27;20046;-76
2023/05/21 18:13:44;;;;;;;1.88;1.20;;;;;;;16.99;39.25;101994.84;10633317;27;20039;-77
2023/05/21 18:18:46;;;;;;;5.30;1.52;;;;;;;16.93;39.04;101995.19;10599995;27;20048;-77
2023/05/21 18:23:48;;;;;;;3.28;1.55;;;;;;;16.74;39.61;101995.91;10618492;27;20046;-75
2023/05/21 18:28:51;;;;;;;2.08;1.30;;;;;;;16.59;39.98;101996.81;10653729;27;20047;-76
2023/05/21 18:33:53;;;;;;;1.60;1.10;;;;;;;16.39;40.73;102002.50;10634292;27;20437;-75
2023/05/21 18:38:56;;;;;;;2.13;1.48;;;;;;;16.25;41.47;102002.31;10642497;27;20043;-75
2023/05/21 18:44:00;;;;;;;7.30;1.63;;;;;;;16.32;41.59;101998.41;10607005;27;20050;-76
2023/05/21 18:49:03;;;;;;;4.32;1.15;;;;;;;16.26;41.97;102008.69;10645036;27;20034;-75
2023/05/21 18:54:07;;;;;;;7.05;1.60;;;;;;;16.23;42.66;101998.19;10626606;27;20509;-75
2023/05/21 18:59:09;;;;;;;2.60;1.38;;;;;;;16.21;42.75;102004.00;10634957;27;20031;-75
2023/05/21 19:04:11;;;;;;;5.78;1.05;;;;;;;16.14;42.61;102000.72;10612754;28;20051;-76
2023/05/21 19:09:14;;;;;;;1.50;1.00;;;;;;;16.11;42.91;101992.16;10610541;28;20038;-75
2023/05/21 19:14:16;;;;;;;2.33;1.50;;;;;;;15.95;43.00;101991.38;10590577;28;20052;-75
2023/05/21 19:19:18;;;;;;;3.85;1.20;;;;;;;15.87;43.93;101990.06;10597206;27;20038;-74
2023/05/21 19:24:24;;;;;;;2.75;1.60;;;;;;;15.78;43.20;101982.63;10618762;28;20054;-74
2023/05/21 19:29:27;;;;;;;4.13;1.58;;;;;;;15.77;43.66;101970.72;10642770;28;20375;-75
2023/05/21 19:34:29;;;;;;;3.58;1.30;;;;;;;15.63;44.33;101984.34;10632087;28;20058;-73
2023/05/21 19:39:38;;;;;;;3.28;1.58;;;;;;;15.50;43.83;101975.78;10649406;28;20047;-73
2023/05/21 19:44:40;;;;;;;4.22;1.80;;;;;;;15.39;44.82;101970.28;10646687;28;20043;-73
2023/05/21 19:49:43;;;;;;;3.90;1.27;;;;;;;15.38;44.80;101968.63;10630713;28;20042;-76
2023/05/21 19:54:45;;;;;;;4.22;1.70;;;;;;;15.41;44.80;101974.69;10622617;28;20054;-73
2023/05/21 19:59:47;;;;;;;3.78;1.17;;;;;;;15.32;45.17;101969.75;10645206;28;20070;-74
2023/05/21 20:04:50;;;;;;;2.10;1.30;;;;;;;15.40;45.17;101976.63;10642956;28;20035;-74
2023/05/21 20:09:52;;;;;;;3.30;1.23;;;;;;;15.41;44.97;101974.69;10609497;27;20504;-73
2023/05/21 20:14:55;;;;;;;3.25;1.50;;;;;;;15.31;44.57;101973.63;10648701;27;20039;-73
2023/05/21 20:19:59;;;;;;;4.97;1.33;;;;;;;15.19;45.02;101975.03;10644062;27;20070;-74
2023/05/21 20:25:02;;;;;;;3.47;1.92;;;;;;;14.99;45.44;101970.38;10617068;27;20520;-74
2023/05/21 20:30:06;;;;;;;5.80;1.80;;;;;;;14.84;45.91;101973.13;10644064;27;20626;-73
2023/05/21 20:35:08;;;;;;;2.60;1.33;;;;;;;14.72;46.43;101965.13;10635988;27;20050;-74
2023/05/21 20:40:11;;;;;;;2.95;1.60;;;;;;;14.65;46.40;101964.59;10609624;27;20108;-73
2023/05/21 20:45:14;;;;;;;2.70;1.60;;;;;;;14.60;46.63;101957.13;10619477;27;20043;-73
2023/05/21 20:50:17;;;;;;;2.88;1.85;;;;;;;14.49;47.53;101958.22;10599993;27;20042;-73
2023/05/21 20:55:19;;;;;;;2.83;1.60;;;;;;;14.42;47.82;101954.88;10652181;27;20393;-73
2023/05/21 21:00:23;;;;;;;2.67;2.03;;;;;;;14.37;48.22;101954.84;10628387;27;20043;-72
2023/05/21 21:05:26;;;;;;;3.05;1.95;;;;;;;14.42;48.59;101960.41;10634557;27;20421;-81
2023/05/21 21:10:28;;;;;;;2.75;2.20;;;;;;;14.27;48.48;101961.22;10647717;27;20531;-72
2023/05/21 21:15:30;;;;;;;5.32;1.77;;;;;;;14.17;49.66;101967.53;10656607;27;20390;-73
2023/05/21 21:20:32;;;;;;;4.13;1.95;;;;;;;14.11;49.71;101965.88;10650891;27;20051;-72
2023/05/21 21:25:35;;;;;;;3.75;1.75;;;;;;;14.19;49.22;101965.31;10649894;27;20050;-72
2023/05/21 21:30:39;;;;;;;4.68;1.80;;;;;;;14.20;49.72;101968.91;10658715;27;20035;-73
2023/05/21 21:35:41;;;;;;;2.63;2.03;;;;;;;14.02;50.03;101972.19;10618855;27;20073;-71
2023/05/21 21:40:44;;;;;;;4.22;1.92;;;;;;;13.85;50.64;101964.13;10645011;27;20035;-71
2023/05/21 21:45:46;;;;;;;5.07;2.28;;;;;;;13.71;50.42;101960.19;10606245;27;20429;-74
2023/05/21 21:50:49;;;;;;;2.30;1.67;;;;;;;13.60;51.00;101955.75;10592746;27;20129;-73
2023/05/21 21:55:51;;;;;;;3.38;2.10;;;;;;;13.55;50.68;101954.66;10658139;27;20039;-75
2023/05/21 22:00:54;;;;;;;2.20;1.58;;;;;;;13.45;50.73;101951.00;10621559;27;20533;-76
2023/05/21 22:05:59;;;;;;;4.30;1.75;;;;;;;13.36;51.59;101945.16;10633770;27;20556;-76
2023/05/21 22:11:01;;;;;;;3.38;1.38;;;;;;;13.35;52.16;101949.00;10653014;27;20039;-75
2023/05/21 22:16:04;;;;;;;4.97;1.70;;;;;;;13.45;51.43;101949.06;10635321;27;20042;-75
2023/05/21 22:21:12;;;;;;;3.50;1.83;;;;;;;13.35;51.62;101949.00;10652261;27;20039;-76
2023/05/21 22:26:15;;;;;;;2.53;1.80;;;;;;;13.23;52.55;101948.41;10633159;27;20054;-76
2023/05/21 22:31:19;;;;;;;4.65;1.67;;;;;;;13.16;52.45;101953.28;10648609;27;20050;-76
2023/05/21 22:36:21;;;;;;;2.65;1.95;;;;;;;13.14;52.41;101947.22;10617429;27;20050;-76
2023/05/21 22:41:24;;;;;;;4.55;1.70;;;;;;;13.13;51.95;101945.53;10646948;27;20035;-76
2023/05/21 22:46:27;;;;;;;4.18;1.60;;;;;;;13.09;52.51;101947.19;10652088;27;20043;-77
2023/05/21 22:51:33;;;;;;;2.78;1.33;;;;;;;13.04;52.09;101939.72;10623267;27;20035;-77
2023/05/21 22:56:35;;;;;;;2.65;1.50;;;;;;;13.03;52.98;101937.22;10645910;27;20043;-75
2023/05/21 23:01:40;;;;;;;1.88;1.33;;;;;;;13.19;52.37;101937.09;10635296;27;20527;-76
2023/05/21 23:06:43;;;;;;;2.88;1.38;;;;;;;13.14;52.02;101939.75;10638273;27;20031;-76
2023/05/21 23:11:45;;;;;;;3.97;1.15;;;;;;;13.21;52.45;101932.16;10630758;28;20079;-76
2023/05/21 23:16:47;;;;;;;2.15;1.45;;;;;;;13.22;52.35;101924.69;10633151;28;20031;-76